Time;durP1;ratioP1;P1;durP2;ratioP2;P2;SDS_P1;SDS_P2;PMS_P1;PMS_P2;Temp;Humidity;BMP_temperature;BMP_pressure;BME280_temperature;BME280_humidity;BME280_pressure;Samples;Min_cycle;Max_cycle;Signal;HPM_P1;HPM_P2
2024/04/21 00:02:04;;;;;;;4.33;3.20;;;6.90;99.90;;;;;;5453820;26;20272;-56
2024/04/21 00:04:32;;;;;;;4.03;3.03;;;6.80;99.90;;;;;;5454017;26;20230;-55
2024/04/21 00:07:01;;;;;;;3.53;2.60;;;6.70;99.90;;;;;;5454098;26;20252;-55
2024/04/21 00:09:27;;;;;;;2.47;2.27;;;6.60;99.90;;;;;;5454165;26;20234;-55
2024/04/21 00:11:55;;;;;;;3.40;2.80;;;6.40;99.90;;;;;;5453413;26;20638;-55
2024/04/21 00:14:21;;;;;;;8.40;5.47;;;6.40;99.90;;;;;;5453902;26;20738;-58
2024/04/21 00:16:49;;;;;;;7.03;4.47;;;6.20;99.90;;;;;;5453935;26;20230;-55
2024/04/21 00:19:15;;;;;;;7.40;4.80;;;6.20;99.90;;;;;;5453811;26;20700;-56
2024/04/21 00:21:46;;;;;;;8.60;4.73;;;6.20;99.90;;;;;;5453134;26;20284;-54
2024/04/21 00:24:12;;;;;;;5.70;4.30;;;6.20;99.90;;;;;;5453743;26;20601;-55
2024/04/21 00:26:40;;;;;;;8.03;5.70;;;6.30;99.90;;;;;;5453833;26;20280;-55
2024/04/21 00:29:06;;;;;;;3.40;3.10;;;6.40;99.90;;;;;;5453781;26;20724;-55
2024/04/21 00:31:34;;;;;;;3.33;2.60;;;6.30;99.90;;;;;;5453444;26;20293;-55
2024/04/21 00:34:01;;;;;;;3.00;2.70;;;6.50;99.90;;;;;;5453934;26;20229;-55
2024/04/21 00:36:29;;;;;;;2.93;2.63;;;6.60;99.90;;;;;;5453590;26;20233;-56
2024/04/21 00:38:58;;;;;;;8.07;5.13;;;6.70;99.90;;;;;;5453461;26;20234;-56
2024/04/21 00:41:26;;;;;;;3.70;3.20;;;6.80;99.90;;;;;;5453088;26;20267;-56
2024/04/21 00:43:52;;;;;;;6.40;4.70;;;6.90;99.90;;;;;;5453427;26;20231;-56
2024/04/21 00:46:20;;;;;;;3.23;2.93;;;6.90;99.90;;;;;;5452733;26;20234;-55
2024/04/21 00:48:46;;;;;;;5.33;3.97;;;7.00;99.90;;;;;;5453123;26;20271;-54
2024/04/21 00:51:14;;;;;;;9.93;6.70;;;7.00;99.90;;;;;;5453101;26;20237;-56
2024/04/21 00:53:40;;;;;;;10.73;7.33;;;7.00;99.90;;;;;;5453343;26;20716;-55
2024/04/21 00:56:12;;;;;;;13.33;7.97;;;7.00;99.90;;;;;;5453462;26;20268;-55
2024/04/21 00:58:39;;;;;;;5.40;4.13;;;6.90;99.90;;;;;;5453311;26;20261;-55
2024/04/21 01:01:07;;;;;;;4.13;3.20;;;6.90;99.90;;;;;;5452843;26;20610;-55
2024/04/21 01:03:34;;;;;;;4.50;3.60;;;6.90;99.90;;;;;;5453184;26;20226;-57
2024/04/21 01:06:02;;;;;;;3.83;3.37;;;6.80;99.90;;;;;;5453212;26;20344;-55
2024/04/21 01:08:29;;;;;;;5.30;3.77;;;6.80;99.90;;;;;;5453061;26;20233;-54
2024/04/21 01:10:57;;;;;;;3.70;3.30;;;6.90;99.90;;;;;;5452463;26;20287;-55
2024/04/21 01:13:26;;;;;;;4.40;3.60;;;7.00;99.90;;;;;;5452888;26;20230;-58
2024/04/21 01:15:54;;;;;;;4.63;3.37;;;7.00;99.90;;;;;;5452929;26;20717;-56
2024/04/21 01:18:20;;;;;;;4.30;3.20;;;7.20;99.90;;;;;;5453064;26;20230;-55
2024/04/21 01:20:49;;;;;;;2.47;2.27;;;7.30;99.90;;;;;;5452379;26;20319;-55
2024/04/21 01:23:18;;;;;;;2.67;2.47;;;7.30;99.90;;;;;;5452939;26;20229;-55
2024/04/21 01:25:47;;;;;;;2.70;2.40;;;7.40;99.90;;;;;;5452281;26;20318;-55
2024/04/21 01:28:13;;;;;;;2.63;2.10;;;7.50;99.90;;;;;;5452746;26;20234;-55
2024/04/21 01:30:41;;;;;;;2.13;1.93;;;7.60;99.90;;;;;;5451847;26;20241;-55
2024/04/21 01:33:07;;;;;;;2.23;1.70;;;7.70;99.90;;;;;;5452710;26;20715;-55
2024/04/21 01:35:36;;;;;;;3.20;1.70;;;7.70;99.90;;;;;;5452758;26;20234;-56
2024/04/21 01:38:02;;;;;;;2.00;1.80;;;7.70;99.90;;;;;;5452621;26;20261;-56
2024/04/21 01:40:33;;;;;;;2.27;1.60;;;7.80;99.90;;;;;;5451854;26;20350;-55
2024/04/21 01:42:59;;;;;;;3.17;1.67;;;7.80;99.90;;;;;;5452413;26;20268;-55
2024/04/21 01:45:27;;;;;;;1.40;1.20;;;7.80;99.90;;;;;;5452786;26;20234;-58
2024/04/21 01:47:53;;;;;;;2.33;1.13;;;7.90;99.90;;;;;;5452829;26;20264;-55
2024/04/21 01:50:23;;;;;;;1.07;0.97;;;7.90;99.90;;;;;;5452164;26;20238;-55
2024/04/21 01:52:49;;;;;;;1.63;1.10;;;8.00;99.90;;;;;;5452487;26;20269;-54
2024/04/21 01:55:17;;;;;;;1.53;1.10;;;8.10;99.90;;;;;;5452228;26;20719;-55
2024/04/21 01:57:45;;;;;;;1.70;0.90;;;8.10;99.90;;;;;;5452684;26;20267;-55
2024/04/21 02:00:14;;;;;;;0.70;0.70;;;8.20;99.90;;;;;;5452104;26;20620;-55
2024/04/21 02:02:39;;;;;;;1.87;1.00;;;8.10;99.90;;;;;;5452277;26;20230;-55
2024/04/21 02:05:08;;;;;;;0.90;0.90;;;8.20;99.90;;;;;;5452195;26;20276;-55
2024/04/21 02:07:34;;;;;;;1.50;0.90;;;8.10;99.90;;;;;;5452057;26;20296;-55
2024/04/21 02:10:02;;;;;;;2.57;1.00;;;8.20;99.90;;;;;;5452129;26;20370;-55
2024/04/21 02:12:28;;;;;;;1.03;0.80;;;8.20;99.90;;;;;;5451806;26;20827;-55
2024/04/21 02:14:59;;;;;;;1.17;0.83;;;8.30;99.90;;;;;;5452391;26;20245;-54
2024/04/21 02:17:24;;;;;;;1.50;0.80;;;8.30;99.90;;;;;;5452235;26;20618;-59
2024/04/21 02:19:53;;;;;;;1.13;0.60;;;8.40;99.90;;;;;;5452143;26;20238;-55
2024/04/21 02:22:18;;;;;;;1.00;0.70;;;8.40;99.90;;;;;;5451580;26;20261;-54
2024/04/21 02:24:47;;;;;;;0.90;0.73;;;8.40;99.90;;;;;;5452099;26;20234;-56
2024/04/21 02:27:12;;;;;;;0.50;0.50;;;8.40;99.90;;;;;;5452172;26;20271;-56
2024/04/21 02:29:41;;;;;;;0.60;0.60;;;8.40;99.90;;;;;;5451267;26;20242;-55
2024/04/21 02:32:09;;;;;;;1.37;0.67;;;8.40;99.90;;;;;;5451907;26;20230;-55
2024/04/21 02:34:37;;;;;;;2.00;0.80;;;8.40;99.90;;;;;;5451721;26;20233;-58
2024/04/21 02:37:03;;;;;;;1.73;1.07;;;8.40;99.90;;;;;;5451865;26;20771;-56
2024/04/21 02:39:32;;;;;;;2.20;0.50;;;8.40;99.90;;;;;;5451681;26;20819;-58
2024/04/21 02:41:59;;;;;;;1.87;0.70;;;8.40;99.90;;;;;;5451190;26;20234;-56
2024/04/21 02:44:27;;;;;;;0.83;0.60;;;8.40;99.90;;;;;;5451701;26;20234;-55
2024/04/21 02:46:53;;;;;;;1.23;0.90;;;8.40;99.90;;;;;;5451650;26;20230;-55
2024/04/21 02:49:24;;;;;;;1.50;0.90;;;8.40;99.90;;;;;;5451562;26;20777;-55
2024/04/21 02:51:49;;;;;;;1.50;0.80;;;8.40;99.90;;;;;;5451088;26;20703;-58
2024/04/21 02:54:19;;;;;;;0.83;0.80;;;8.40;99.90;;;;;;5451446;26;20268;-54
2024/04/21 02:56:45;;;;;;;1.43;0.90;;;8.40;99.90;;;;;;5451333;26;20230;-55
2024/04/21 02:59:13;;;;;;;2.90;1.10;;;8.50;99.90;;;;;;5450869;26;20609;-55
2024/04/21 03:01:39;;;;;;;3.27;1.50;;;8.50;99.90;;;;;;5451097;26;20234;-55
2024/04/21 03:04:07;;;;;;;1.63;1.30;;;8.40;99.90;;;;;;5451423;26;20268;-55
2024/04/21 03:06:35;;;;;;;1.33;0.80;;;8.40;99.90;;;;;;5450994;26;20230;-54
2024/04/21 03:09:05;;;;;;;2.00;1.20;;;8.30;99.90;;;;;;5450414;26;20668;-54
2024/04/21 03:11:31;;;;;;;2.40;1.40;;;8.30;99.90;;;;;;5450718;26;20271;-54
2024/04/21 03:13:59;;;;;;;1.37;1.17;;;8.20;99.90;;;;;;5451301;26;20238;-54
2024/04/21 03:16:25;;;;;;;2.33;1.10;;;8.20;99.90;;;;;;5451407;26;20233;-57
2024/04/21 03:18:53;;;;;;;1.50;1.10;;;8.20;99.90;;;;;;5450821;26;20719;-56
2024/04/21 03:21:19;;;;;;;1.90;1.10;;;8.10;99.90;;;;;;5450577;26;20230;-54
2024/04/21 03:23:51;;;;;;;1.90;1.10;;;8.00;99.90;;;;;;5450726;26;20234;-54
2024/04/21 03:26:17;;;;;;;1.40;1.07;;;8.00;99.90;;;;;;5450900;26;20573;-55
2024/04/21 03:28:46;;;;;;;2.77;1.00;;;8.00;99.90;;;;;;5450490;26;20238;-54
2024/04/21 03:31:11;;;;;;;2.23;1.20;;;8.00;99.90;;;;;;5449939;26;20229;-55
2024/04/21 03:33:40;;;;;;;1.67;1.10;;;7.90;99.90;;;;;;5450606;26;20234;-55
2024/04/21 03:36:08;;;;;;;2.13;1.93;;;7.90;99.90;;;;;;5450764;26;20230;-55
2024/04/21 03:38:37;;;;;;;1.93;1.13;;;7.90;99.90;;;;;;5450577;26;20287;-55
2024/04/21 03:41:08;;;;;;;1.87;1.50;;;7.90;99.90;;;;;;5450356;26;20624;-56
2024/04/21 03:43:36;;;;;;;2.60;1.30;;;7.80;99.90;;;;;;5450536;26;20229;-55
2024/04/21 03:46:05;;;;;;;1.70;1.30;;;7.80;99.90;;;;;;5450083;26;20294;-58
2024/04/21 03:48:31;;;;;;;2.57;1.60;;;7.80;99.90;;;;;;5450618;26;20231;-55
2024/04/21 03:50:59;;;;;;;2.83;1.43;;;7.70;99.90;;;;;;5450367;26;20765;-55
2024/04/21 03:53:25;;;;;;;1.83;1.40;;;7.80;99.90;;;;;;5450878;26;20230;-55
2024/04/21 03:55:54;;;;;;;2.90;1.40;;;7.80;99.90;;;;;;5449277;26;20290;-55
2024/04/21 03:58:22;;;;;;;2.13;1.43;;;7.80;99.90;;;;;;5450604;26;20226;-55
2024/04/21 04:00:51;;;;;;;1.50;1.33;;;7.90;99.90;;;;;;5449986;26;20783;-55
2024/04/21 04:03:17;;;;;;;1.93;1.30;;;7.90;99.90;;;;;;5450706;26;20234;-58
2024/04/21 04:05:46;;;;;;;2.33;2.03;;;7.90;99.90;;;;;;5451017;26;20342;-57
2024/04/21 04:08:12;;;;;;;2.00;1.33;;;7.80;99.90;;;;;;5450234;26;20269;-55
2024/04/21 04:10:42;;;;;;;3.90;1.43;;;7.80;99.90;;;;;;5449712;26;20708;-55
2024/04/21 04:13:07;;;;;;;2.00;1.60;;;7.80;99.90;;;;;;5450006;26;20273;-55
2024/04/21 04:15:39;;;;;;;3.10;1.33;;;7.70;99.90;;;;;;5450263;26;20234;-56
2024/04/21 04:18:06;;;;;;;1.70;1.60;;;7.80;99.90;;;;;;5450152;26;20294;-58
2024/04/21 04:20:34;;;;;;;2.10;1.60;;;7.90;99.90;;;;;;5449033;26;20712;-56
2024/04/21 04:23:00;;;;;;;3.30;1.73;;;7.90;99.90;;;;;;5452248;26;20699;-55
2024/04/21 04:25:29;;;;;;;2.73;1.60;;;7.90;99.90;;;;;;5453665;26;20271;-55
2024/04/21 04:27:55;;;;;;;2.43;1.60;;;7.90;99.90;;;;;;5424539;26;20582;-55
2024/04/21 04:30:23;;;;;;;2.27;1.57;;;7.90;99.90;;;;;;5453302;26;20721;-55
2024/04/21 04:32:51;;;;;;;2.23;1.60;;;7.90;99.90;;;;;;5453365;26;20246;-55
2024/04/21 04:35:20;;;;;;;4.30;2.20;;;7.90;99.90;;;;;;5453359;26;20257;-57
2024/04/21 04:37:46;;;;;;;2.43;1.97;;;7.80;99.90;;;;;;5453136;26;20330;-55
2024/04/21 04:40:14;;;;;;;2.27;2.00;;;7.90;99.90;;;;;;5453009;26;20731;-57
2024/04/21 04:42:40;;;;;;;3.23;2.00;;;7.90;99.90;;;;;;5452808;26;20263;-55
2024/04/21 04:45:08;;;;;;;2.30;1.77;;;7.80;99.90;;;;;;5453605;26;20237;-58
2024/04/21 04:47:34;;;;;;;2.40;1.20;;;7.80;99.90;;;;;;5453188;26;20260;-55
2024/04/21 04:50:06;;;;;;;1.57;1.10;;;7.70;99.90;;;;;;5453112;26;20249;-57
2024/04/21 04:52:32;;;;;;;1.20;1.10;;;7.50;99.90;;;;;;5453229;26;20238;-58
2024/04/21 04:55:00;;;;;;;0.97;0.97;;;7.40;99.90;;;;;;5453296;26;20276;-55
2024/04/21 04:57:26;;;;;;;2.53;1.20;;;7.40;99.90;;;;;;5452884;26;20229;-58
2024/04/21 04:59:54;;;;;;;1.10;1.00;;;7.30;99.90;;;;;;5452641;26;20257;-55
2024/04/21 05:02:20;;;;;;;1.20;1.00;;;7.30;99.90;;;;;;5452576;26;20273;-57
2024/04/21 05:04:48;;;;;;;1.47;1.13;;;7.20;99.90;;;;;;5452630;26;20234;-56
2024/04/21 05:07:16;;;;;;;1.03;0.80;;;7.20;99.90;;;;;;5452592;26;20581;-57
2024/04/21 05:09:45;;;;;;;2.83;0.83;;;7.00;99.90;;;;;;5452678;26;20238;-55
2024/04/21 05:12:10;;;;;;;0.73;0.53;;;6.80;99.90;;;;;;5452329;26;20226;-55
2024/04/21 05:14:39;;;;;;;0.40;0.40;;;6.60;99.90;;;;;;5452518;26;20280;-55
2024/04/21 05:17:06;;;;;;;1.13;0.50;;;6.40;99.90;;;;;;5452645;26;20716;-55
2024/04/21 05:19:34;;;;;;;0.70;0.60;;;6.40;99.90;;;;;;5452389;26;20238;-56
2024/04/21 05:22:00;;;;;;;0.67;0.57;;;6.30;99.90;;;;;;5452207;26;20703;-55
2024/04/21 05:24:31;;;;;;;1.10;0.87;;;6.20;99.90;;;;;;5452953;26;20229;-55
2024/04/21 05:26:57;;;;;;;0.67;0.50;;;6.40;99.90;;;;;;5423665;26;20230;-55
2024/04/21 05:29:25;;;;;;;0.70;0.63;;;6.40;99.90;;;;;;5452351;26;20719;-54
2024/04/21 05:31:52;;;;;;;1.10;0.67;;;6.50;99.90;;;;;;5452172;26;20241;-55
2024/04/21 05:34:20;;;;;;;0.67;0.67;;;6.30;99.90;;;;;;5452007;26;20280;-55
2024/04/21 05:36:46;;;;;;;0.53;0.53;;;6.20;99.90;;;;;;5452426;26;20276;-54
2024/04/21 05:39:14;;;;;;;0.80;0.60;;;6.30;99.90;;;;;;5452275;26;20238;-55
2024/04/21 05:41:43;;;;;;;0.60;0.60;;;6.50;99.90;;;;;;5451988;26;20234;-56
2024/04/21 05:44:11;;;;;;;1.03;0.73;;;6.50;99.90;;;;;;5452376;26;20264;-56
2024/04/21 05:46:37;;;;;;;1.53;0.80;;;6.40;99.90;;;;;;5452058;26;20226;-58
2024/04/21 05:49:05;;;;;;;0.80;0.67;;;6.40;99.90;;;;;;5452247;26;20322;-55
2024/04/21 05:51:31;;;;;;;0.77;0.77;;;6.40;99.90;;;;;;5451867;26;20262;-57
2024/04/21 05:53:59;;;;;;;1.00;0.90;;;6.40;99.90;;;;;;5422719;26;20267;-55
2024/04/21 05:56:25;;;;;;;3.97;1.40;;;6.50;99.90;;;;;;5452527;26;20270;-58
2024/04/21 05:58:56;;;;;;;1.60;1.03;;;6.70;99.90;;;;;;5451952;26;20261;-55
2024/04/21 06:01:22;;;;;;;3.00;1.00;;;6.80;99.90;;;;;;5451530;26;20230;-54
2024/04/21 06:03:50;;;;;;;2.13;0.90;;;6.90;99.90;;;;;;5451606;26;20241;-55
2024/04/21 06:06:21;;;;;;;1.33;0.90;;;7.00;99.90;;;;;;5451757;26;20229;-54
2024/04/21 06:08:49;;;;;;;2.90;1.17;;;7.00;99.90;;;;;;5451444;26;20230;-55
2024/04/21 06:11:15;;;;;;;2.73;1.17;;;7.20;99.90;;;;;;5451209;26;20234;-55
2024/04/21 06:13:44;;;;;;;1.87;0.90;;;7.30;99.90;;;;;;5451701;26;20653;-57
2024/04/21 06:16:12;;;;;;;3.77;1.03;;;7.50;99.90;;;;;;5452050;26;20759;-55
2024/04/21 06:18:40;;;;;;;3.43;1.07;;;7.70;99.90;;;;;;5451450;26;20234;-54
2024/04/21 06:21:07;;;;;;;3.50;1.40;;;7.80;99.90;;;;;;5451261;26;20233;-56
2024/04/21 06:23:35;;;;;;;2.47;1.20;;;7.80;99.90;;;;;;5452016;26;20631;-56
2024/04/21 06:26:01;;;;;;;1.97;1.60;;;7.80;99.90;;;;;;5451777;26;20976;-55
2024/04/21 06:28:31;;;;;;;2.33;1.03;;;7.90;99.90;;;;;;5451648;26;20233;-55
2024/04/21 06:30:56;;;;;;;2.40;1.00;;;8.20;99.90;;;;;;5451071;26;20635;-54
2024/04/21 06:33:28;;;;;;;1.83;1.40;;;8.30;99.90;;;;;;5451652;26;20259;-55
2024/04/21 06:35:54;;;;;;;5.37;1.50;;;8.30;99.90;;;;;;5451649;26;20230;-55
2024/04/21 06:38:22;;;;;;;2.40;1.10;;;8.50;99.90;;;;;;5451483;26;20284;-57
2024/04/21 06:40:48;;;;;;;2.70;1.10;;;8.70;99.90;;;;;;5450606;26;20233;-56
2024/04/21 06:43:16;;;;;;;2.10;1.03;;;8.80;99.90;;;;;;5451039;26;20770;-56
2024/04/21 06:45:45;;;;;;;2.83;1.20;;;8.90;99.90;;;;;;5449566;26;20249;-55
2024/04/21 06:48:13;;;;;;;4.13;1.40;;;8.80;99.90;;;;;;5451042;26;20274;-55
2024/04/21 06:50:42;;;;;;;3.30;1.03;;;8.70;99.90;;;;;;5450282;26;20235;-55
2024/04/21 06:53:11;;;;;;;6.10;3.20;;;8.70;99.90;;;;;;5451290;26;20330;-55
2024/04/21 06:55:36;;;;;;;6.90;2.33;;;8.80;99.90;;;;;;5450528;26;20230;-55
2024/04/21 06:58:05;;;;;;;53.13;39.87;;;8.90;99.90;;;;;;5451114;26;20265;-55
2024/04/21 07:00:31;;;;;;;4.03;1.73;;;9.00;99.90;;;;;;5450487;26;20230;-56
2024/04/21 07:02:59;;;;;;;4.17;1.50;;;8.80;99.90;;;;;;5450473;26;20276;-55
2024/04/21 07:05:25;;;;;;;5.23;1.30;;;8.80;99.90;;;;;;5450344;26;20268;-55
2024/04/21 07:07:56;;;;;;;3.07;1.60;;;8.70;99.90;;;;;;5450632;26;20234;-55
2024/04/21 07:10:22;;;;;;;2.80;1.30;;;8.80;99.90;;;;;;5450801;26;20571;-55
2024/04/21 07:12:50;;;;;;;3.93;1.60;;;8.90;99.90;;;;;;5450881;26;20230;-55
2024/04/21 07:15:16;;;;;;;2.77;1.33;;;8.70;99.90;;;;;;5451048;26;20316;-55
2024/04/21 07:17:44;;;;;;;4.90;1.53;;;8.60;99.90;;;;;;5450187;26;21177;-55
2024/04/21 07:20:10;;;;;;;6.40;1.40;;;8.20;99.90;;;;;;5451072;26;20333;-56
2024/04/21 07:22:38;;;;;;;4.73;1.63;;;8.00;99.90;;;;;;5450357;26;21014;-55
2024/04/21 07:25:09;;;;;;;6.50;1.37;;;7.40;99.90;;;;;;5450829;26;20348;-55
2024/04/21 07:27:38;;;;;;;4.43;1.37;;;7.00;99.90;;;;;;5450507;26;20233;-55
2024/04/21 07:30:04;;;;;;;7.27;1.70;;;6.90;99.90;;;;;;5450479;26;20280;-55
2024/04/21 07:32:33;;;;;;;4.77;1.80;;;6.90;99.90;;;;;;5450420;26;20289;-55
2024/04/21 07:34:58;;;;;;;5.40;2.23;;;6.90;99.90;;;;;;5450346;26;20279;-55
2024/04/21 07:37:27;;;;;;;6.47;1.70;;;7.20;99.90;;;;;;5450503;26;20234;-55
2024/04/21 07:39:52;;;;;;;3.07;1.40;;;7.30;99.90;;;;;;5450225;26;20234;-55
2024/04/21 07:42:23;;;;;;;18.57;13.80;;;7.80;99.90;;;;;;5449934;26;20766;-55
2024/04/21 07:44:49;;;;;;;6.63;3.57;;;8.10;99.90;;;;;;5450228;26;20272;-56
2024/04/21 07:47:17;;;;;;;5.90;1.90;;;8.60;99.90;;;;;;5450150;26;20582;-55
2024/04/21 07:49:45;;;;;;;6.07;1.63;;;9.10;99.90;;;;;;5450018;26;20342;-58
2024/04/21 07:52:13;;;;;;;2.30;1.30;;;9.40;99.90;;;;;;5449895;26;20276;-55
2024/04/21 07:54:39;;;;;;;4.40;1.50;;;9.50;99.90;;;;;;5450027;26;20233;-55
2024/04/21 07:57:07;;;;;;;5.77;1.60;;;9.30;99.90;;;;;;5452955;26;20645;-55
2024/04/21 07:59:36;;;;;;;3.30;1.40;;;9.50;99.90;;;;;;5453491;26;20313;-57
2024/04/21 08:02:04;;;;;;;4.47;1.17;;;9.60;99.90;;;;;;5424128;26;20229;-55
2024/04/21 08:04:30;;;;;;;3.33;1.13;;;9.50;99.90;;;;;;5453801;26;20230;-55
2024/04/21 08:06:59;;;;;;;2.93;1.20;;;9.10;99.90;;;;;;5453480;26;20284;-56
2024/04/21 08:09:24;;;;;;;3.73;1.33;;;8.90;99.90;;;;;;5453378;26;20233;-55
2024/04/21 08:11:53;;;;;;;4.07;1.30;;;8.60;99.90;;;;;;5453456;26;20234;-56
2024/04/21 08:14:18;;;;;;;1.77;1.07;;;8.50;99.90;;;;;;5453578;26;20230;-55
2024/04/21 08:16:49;;;;;;;4.60;1.10;;;8.50;99.90;;;;;;5453488;26;20269;-56
2024/04/21 08:19:15;;;;;;;3.20;1.50;;;8.70;99.90;;;;;;5453513;26;20284;-55
2024/04/21 08:21:43;;;;;;;4.90;1.67;;;9.00;99.90;;;;;;5453123;26;20594;-55
2024/04/21 08:24:09;;;;;;;4.77;1.63;;;9.40;99.90;;;;;;5453551;26;20230;-55
2024/04/21 08:26:37;;;;;;;5.40;1.50;;;9.50;99.90;;;;;;5453422;26;20272;-55
2024/04/21 08:29:03;;;;;;;3.07;1.17;;;9.70;99.90;;;;;;5394233;26;20692;-57
2024/04/21 08:31:32;;;;;;;4.87;1.47;;;9.70;99.90;;;;;;5452861;26;20234;-55
2024/04/21 08:34:00;;;;;;;5.23;1.40;;;9.40;99.90;;;;;;5453183;26;20230;-55
2024/04/21 08:36:29;;;;;;;6.13;1.60;;;9.20;99.90;;;;;;5453041;26;20234;-57
2024/04/21 08:38:55;;;;;;;4.50;1.53;;;9.40;99.90;;;;;;5453188;26;20272;-56
2024/04/21 08:41:25;;;;;;;6.27;1.60;;;9.50;99.90;;;;;;5452964;26;20269;-55
2024/04/21 08:43:53;;;;;;;6.47;1.47;;;9.30;99.90;;;;;;5453113;26;20272;-56
2024/04/21 08:46:22;;;;;;;4.00;1.60;;;9.00;99.90;;;;;;5452958;26;20241;-55
2024/04/21 08:48:49;;;;;;;5.10;1.50;;;8.60;99.90;;;;;;5453154;26;20233;-65
2024/04/21 08:51:20;;;;;;;4.33;1.60;;;8.30;99.90;;;;;;5452992;26;20263;-55
2024/04/21 08:53:45;;;;;;;6.13;1.70;;;8.00;99.90;;;;;;5452929;26;20234;-56
2024/04/21 08:56:19;;;;;;;4.33;1.73;;;7.80;99.90;;;;;;5452850;26;20230;-55
2024/04/21 08:58:47;;;;;;;3.03;1.47;;;7.80;99.90;;;;;;5452977;26;20230;-55
2024/04/21 09:01:18;;;;;;;5.93;1.50;;;7.90;99.90;;;;;;5452627;26;20230;-55
2024/04/21 09:03:47;;;;;;;7.10;3.47;;;8.00;99.90;;;;;;5452924;26;20234;-55
2024/04/21 09:06:17;;;;;;;4.83;1.63;;;8.10;99.90;;;;;;5452629;26;20258;-62
2024/04/21 09:08:46;;;;;;;8.83;2.03;;;8.10;99.90;;;;;;5431219;26;20231;-64
2024/04/21 09:11:14;;;;;;;5.63;1.90;;;8.40;99.90;;;;;;5452176;26;20272;-57
2024/04/21 09:13:40;;;;;;;5.07;1.87;;;8.80;99.90;;;;;;5452484;26;20230;-61
2024/04/21 09:16:09;;;;;;;6.67;2.80;;;9.10;99.90;;;;;;5452945;26;20264;-62
2024/04/21 09:18:34;;;;;;;6.77;3.40;;;9.20;99.90;;;;;;5451983;26;20230;-65
2024/04/21 09:21:03;;;;;;;4.80;1.40;;;9.50;99.90;;;;;;5452529;26;20741;-61
2024/04/21 09:23:28;;;;;;;5.63;1.47;;;9.70;99.90;;;;;;5452128;26;20720;-61
2024/04/21 09:25:59;;;;;;;6.13;1.97;;;10.20;99.90;;;;;;5451582;26;20233;-62
2024/04/21 09:28:25;;;;;;;6.93;2.40;;;10.20;99.90;;;;;;5452321;26;20234;-63
2024/04/21 09:30:54;;;;;;;3.23;1.50;;;10.20;99.90;;;;;;5451757;26;20331;-65
2024/04/21 09:33:21;;;;;;;2.43;1.40;;;10.50;99.90;;;;;;5452190;26;20580;-62
2024/04/21 09:35:49;;;;;;;5.30;2.10;;;10.80;99.90;;;;;;5452005;26;20234;-62
2024/04/21 09:38:15;;;;;;;6.63;1.97;;;11.10;99.90;;;;;;5451593;26;20265;-61
2024/04/21 09:40:44;;;;;;;5.07;1.80;;;11.60;99.90;;;;;;5451576;26;20242;-58
2024/04/21 09:43:15;;;;;;;4.37;1.40;;;11.70;99.90;;;;;;5452104;26;20234;-58
2024/04/21 09:45:44;;;;;;;4.23;1.63;;;11.60;99.90;;;;;;5452106;26;20270;-58
2024/04/21 09:48:11;;;;;;;5.33;1.47;;;11.60;99.90;;;;;;5451896;26;20570;-57
2024/04/21 09:50:42;;;;;;;5.57;1.60;;;11.40;99.90;;;;;;5451920;26;20238;-57
2024/04/21 09:53:09;;;;;;;2.97;1.23;;;11.30;99.90;;;;;;5424246;26;20276;-58
2024/04/21 09:55:40;;;;;;;4.17;1.20;;;11.40;99.90;;;;;;5452163;26;20272;-58
2024/04/21 09:58:11;;;;;;;5.07;1.97;;;11.70;99.90;;;;;;5422191;26;20469;-61
2024/04/21 10:00:44;;;;;;;3.47;1.23;;;11.80;99.90;;;;;;5451161;26;20233;-59
2024/04/21 10:03:10;;;;;;;4.30;1.03;;;11.70;99.90;;;;;;5424358;26;20264;-61
2024/04/21 10:05:40;;;;;;;3.07;1.07;;;11.80;99.90;;;;;;5452057;26;20241;-59
2024/04/21 10:08:06;;;;;;;4.10;1.30;;;11.80;99.90;;;;;;5451048;26;20667;-58
2024/04/21 10:10:38;;;;;;;5.37;1.50;;;11.80;99.90;;;;;;5451352;26;20342;-58
2024/04/21 10:13:05;;;;;;;4.80;1.00;;;12.00;99.90;;;;;;5451170;26;20330;-61
2024/04/21 10:15:35;;;;;;;5.27;1.47;;;12.20;99.90;;;;;;5452105;26;20614;-58
2024/04/21 10:18:04;;;;;;;3.60;1.13;;;12.50;99.90;;;;;;5451454;26;20261;-58
2024/04/21 10:20:33;;;;;;;3.23;1.50;;;12.70;99.90;;;;;;5451180;26;20382;-58
2024/04/21 10:23:00;;;;;;;8.93;5.10;;;13.00;99.90;;;;;;5451046;26;20684;-57
2024/04/21 10:25:29;;;;;;;5.13;1.17;;;13.30;99.90;;;;;;5451497;26;20229;-57
2024/04/21 10:28:04;;;;;;;2.13;1.00;;;13.50;99.90;;;;;;5451279;26;20276;-57
2024/04/21 10:30:33;;;;;;;3.80;1.77;;;13.00;98.70;;;;;;5451806;26;20237;-60
2024/04/21 10:32:59;;;;;;;3.27;1.03;;;12.70;99.30;;;;;;5451545;26;20261;-60
2024/04/21 10:35:34;;;;;;;2.80;1.23;;;12.70;99.80;;;;;;5415138;26;20243;-60
2024/04/21 10:38:03;;;;;;;2.83;1.20;;;12.80;99.90;;;;;;5414940;26;20751;-58
2024/04/21 10:40:32;;;;;;;2.40;1.07;;;12.90;99.10;;;;;;5414585;26;20288;-59
2024/04/21 10:42:58;;;;;;;3.10;1.10;;;12.70;97.40;;;;;;5414936;26;20277;-60
2024/04/21 10:45:28;;;;;;;2.33;0.90;;;12.40;97.70;;;;;;5415098;26;20235;-59
2024/04/21 10:47:55;;;;;;;4.13;1.07;;;12.40;96.90;;;;;;5414742;26;20277;-61
2024/04/21 10:50:24;;;;;;;2.03;0.80;;;12.30;96.80;;;;;;5415037;26;20572;-59
2024/04/21 10:52:54;;;;;;;4.50;1.17;;;12.40;96.50;;;;;;5415068;26;20231;-59
2024/04/21 10:55:22;;;;;;;4.03;1.40;;;12.60;97.20;;;;;;5414894;26;20339;-60
2024/04/21 10:57:48;;;;;;;3.10;1.10;;;12.30;98.00;;;;;;5414749;26;20378;-58
2024/04/21 11:00:16;;;;;;;3.40;1.53;;;12.20;98.30;;;;;;5449646;21;20313;-61
2024/04/21 11:02:42;;;;;;;4.87;1.20;;;11.90;98.20;;;;;;5444152;26;20268;-61
2024/04/21 11:05:11;;;;;;;4.80;1.70;;;11.50;98.70;;;;;;5430321;26;20279;-62
2024/04/21 11:07:37;;;;;;;5.00;1.23;;;11.30;99.00;;;;;;5428374;26;20781;-62
2024/04/21 11:10:09;;;;;;;4.97;1.50;;;11.40;99.90;;;;;;5420789;26;20235;-62
2024/04/21 11:12:35;;;;;;;3.97;1.30;;;11.60;99.90;;;;;;5437210;26;20231;-64
2024/04/21 11:15:03;;;;;;;3.10;1.10;;;11.80;99.60;;;;;;5429861;26;20719;-63
2024/04/21 11:17:29;;;;;;;5.07;1.27;;;11.60;99.40;;;;;;5429818;26;20231;-61
2024/04/21 11:19:57;;;;;;;3.43;1.07;;;11.20;98.20;;;;;;5417328;26;20290;-64
2024/04/21 11:22:23;;;;;;;2.70;1.07;;;11.00;98.80;;;;;;5449667;26;20719;-62
2024/04/21 11:24:51;;;;;;;2.37;0.90;;;11.30;99.90;;;;;;5450645;26;20242;-61
2024/04/21 11:27:21;;;;;;;3.40;1.23;;;11.90;99.90;;;;;;5451074;26;20229;-62
2024/04/21 11:29:49;;;;;;;3.87;1.20;;;12.10;99.80;;;;;;5451157;26;20310;-62
2024/04/21 11:32:15;;;;;;;4.03;1.23;;;12.00;99.90;;;;;;5453192;26;20727;-61
2024/04/21 11:34:46;;;;;;;3.73;1.17;;;11.90;99.90;;;;;;5454417;26;20267;-63
2024/04/21 11:37:16;;;;;;;3.17;1.33;;;11.40;99.50;;;;;;5417948;26;20231;-62
2024/04/21 11:39:45;;;;;;;3.40;1.00;;;10.80;99.00;;;;;;5432979;26;20238;-61
2024/04/21 11:42:11;;;;;;;2.80;1.10;;;10.70;98.30;;;;;;5417916;26;20231;-62
2024/04/21 11:44:43;;;;;;;1.43;0.80;;;10.70;97.90;;;;;;5433220;26;20253;-62
2024/04/21 11:47:10;;;;;;;5.07;1.23;;;10.90;98.40;;;;;;5423656;26;20241;-61
2024/04/21 11:49:39;;;;;;;2.90;1.10;;;11.30;98.40;;;;;;5440428;26;20242;-60
2024/04/21 11:52:05;;;;;;;2.83;0.97;;;11.70;98.10;;;;;;5447125;26;20688;-59
2024/04/21 11:54:33;;;;;;;2.17;0.90;;;11.80;96.50;;;;;;5443487;26;20711;-60
2024/04/21 11:56:59;;;;;;;3.03;0.80;;;11.80;95.80;;;;;;5449931;26;20230;-61
2024/04/21 11:59:27;;;;;;;1.77;0.87;;;11.80;94.60;;;;;;5427868;26;20238;-61
2024/04/21 12:01:56;;;;;;;2.03;0.77;;;12.10;96.20;;;;;;5436694;26;20760;-61
2024/04/21 12:04:24;;;;;;;2.87;0.90;;;12.40;96.90;;;;;;5433176;26;20276;-60
2024/04/21 12:06:50;;;;;;;2.50;1.00;;;12.60;96.60;;;;;;5434459;26;20235;-62
2024/04/21 12:09:19;;;;;;;5.40;1.40;;;12.50;96.50;;;;;;5439248;26;20575;-60
2024/04/21 12:11:45;;;;;;;2.73;1.00;;;12.70;96.10;;;;;;5438591;26;20272;-60
2024/04/21 12:14:27;;;;;;;2.90;1.00;;;12.80;95.70;;;;;;5432813;26;20239;-60
2024/04/21 12:16:56;;;;;;;3.30;1.00;;;12.90;95.90;;;;;;5434917;26;20262;-60
2024/04/21 12:19:25;;;;;;;3.63;0.97;;;12.70;94.90;;;;;;5438934;26;20241;-60
2024/04/21 12:21:50;;;;;;;2.03;0.87;;;12.60;95.40;;;;;;5436803;26;20233;-60
2024/04/21 12:24:19;;;;;;;2.43;1.07;;;12.70;96.20;;;;;;5432340;26;20344;-59
2024/04/21 12:26:44;;;;;;;3.47;1.10;;;13.00;96.60;;;;;;5432629;26;20231;-59
2024/04/21 12:29:13;;;;;;;2.37;0.80;;;13.60;96.30;;;;;;5432623;26;20273;-59
2024/04/21 12:31:38;;;;;;;2.77;1.03;;;14.20;94.50;;;;;;5432218;26;20231;-59
2024/04/21 12:34:09;;;;;;;2.47;1.20;;;14.20;93.40;;;;;;5437108;26;20278;-59
2024/04/21 12:36:35;;;;;;;2.00;0.80;;;14.20;93.50;;;;;;5438416;26;20230;-59
2024/04/21 12:39:04;;;;;;;2.17;0.80;;;14.20;93.40;;;;;;5434253;26;20234;-59
2024/04/21 12:41:30;;;;;;;3.33;1.40;;;14.10;93.60;;;;;;5431675;26;20231;-59
2024/04/21 12:43:58;;;;;;;5.23;1.13;;;13.90;94.50;;;;;;5433268;26;20235;-59
2024/04/21 12:46:24;;;;;;;2.10;0.83;;;13.80;95.40;;;;;;5438276;26;20230;-59
2024/04/21 12:48:53;;;;;;;3.20;0.93;;;13.80;95.20;;;;;;5437515;26;20272;-59
2024/04/21 12:51:39;;;;;;;2.83;1.37;;;13.50;93.80;;;;;;5431751;26;20278;-61
2024/04/21 12:54:08;;;;;;;2.43;0.80;;;13.10;95.00;;;;;;5436738;26;20281;-62
2024/04/21 12:56:33;;;;;;;2.30;1.33;;;12.90;94.80;;;;;;5438200;26;20230;-62